sensor_id;sensor_type;location;lat;lon;timestamp;pressure;altitude;pressure_sealevel;temperature
25514;BMP180;48128;54.242;10.280;2024-01-25T00:00:53;101113.00;;;7.30
25514;BMP180;48128;54.242;10.280;2024-01-25T00:03:20;101133.00;;;7.30
25514;BMP180;48128;54.242;10.280;2024-01-25T00:05:47;101131.00;;;7.30
25514;BMP180;48128;54.242;10.280;2024-01-25T00:08:15;101140.00;;;7.30
25514;BMP180;48128;54.242;10.280;2024-01-25T00:10:42;101142.00;;;7.30
25514;BMP180;48128;54.242;10.280;2024-01-25T00:13:09;101136.00;;;7.30
25514;BMP180;48128;54.242;10.280;2024-01-25T00:15:36;101164.00;;;7.40
25514;BMP180;48128;54.242;10.280;2024-01-25T00:18:03;101165.00;;;7.40
25514;BMP180;48128;54.242;10.280;2024-01-25T00:20:30;101173.00;;;7.40
25514;BMP180;48128;54.242;10.280;2024-01-25T00:22:57;101170.00;;;7.40
25514;BMP180;48128;54.242;10.280;2024-01-25T00:25:24;101169.00;;;7.40
25514;BMP180;48128;54.242;10.280;2024-01-25T00:27:52;101177.00;;;7.40
25514;BMP180;48128;54.242;10.280;2024-01-25T00:30:19;101170.00;;;7.40
25514;BMP180;48128;54.242;10.280;2024-01-25T00:32:48;101186.00;;;7.40
25514;BMP180;48128;54.242;10.280;2024-01-25T00:35:15;101193.00;;;7.40
25514;BMP180;48128;54.242;10.280;2024-01-25T00:37:43;101197.00;;;7.30
25514;BMP180;48128;54.242;10.280;2024-01-25T00:40:10;101213.00;;;7.30
25514;BMP180;48128;54.242;10.280;2024-01-25T00:42:45;101218.00;;;7.30
25514;BMP180;48128;54.242;10.280;2024-01-25T00:45:12;101201.00;;;7.30
25514;BMP180;48128;54.242;10.280;2024-01-25T00:47:39;101211.00;;;7.30
25514;BMP180;48128;54.242;10.280;2024-01-25T00:50:07;101214.00;;;7.20
25514;BMP180;48128;54.242;10.280;2024-01-25T00:52:34;101217.00;;;7.20
25514;BMP180;48128;54.242;10.280;2024-01-25T00:55:02;101209.00;;;7.20
25514;BMP180;48128;54.242;10.280;2024-01-25T00:57:30;101197.00;;;7.20
25514;BMP180;48128;54.242;10.280;2024-01-25T00:59:58;101215.00;;;7.20
25514;BMP180;48128;54.242;10.280;2024-01-25T01:02:26;101202.00;;;7.20
25514;BMP180;48128;54.242;10.280;2024-01-25T01:04:57;101216.00;;;7.20
25514;BMP180;48128;54.242;10.280;2024-01-25T01:07:25;101224.00;;;7.20
25514;BMP180;48128;54.242;10.280;2024-01-25T01:09:53;101214.00;;;7.20
25514;BMP180;48128;54.242;10.280;2024-01-25T01:12:20;101242.00;;;7.20
25514;BMP180;48128;54.242;10.280;2024-01-25T01:14:47;101236.00;;;7.10
25514;BMP180;48128;54.242;10.280;2024-01-25T01:17:14;101231.00;;;7.10
25514;BMP180;48128;54.242;10.280;2024-01-25T01:19:41;101230.00;;;7.10
25514;BMP180;48128;54.242;10.280;2024-01-25T01:22:10;101232.00;;;7.10
25514;BMP180;48128;54.242;10.280;2024-01-25T01:24:37;101238.00;;;7.10
25514;BMP180;48128;54.242;10.280;2024-01-25T01:27:04;101249.00;;;7.10
25514;BMP180;48128;54.242;10.280;2024-01-25T01:29:31;101244.00;;;7.10
25514;BMP180;48128;54.242;10.280;2024-01-25T01:31:58;101242.00;;;7.10
25514;BMP180;48128;54.242;10.280;2024-01-25T01:34:24;101236.00;;;7.10
25514;BMP180;48128;54.242;10.280;2024-01-25T01:36:52;101246.00;;;7.00
25514;BMP180;48128;54.242;10.280;2024-01-25T01:39:18;101242.00;;;7.10
25514;BMP180;48128;54.242;10.280;2024-01-25T01:41:48;101260.00;;;7.00
25514;BMP180;48128;54.242;10.280;2024-01-25T01:44:16;101238.00;;;7.00
25514;BMP180;48128;54.242;10.280;2024-01-25T01:46:43;101242.00;;;7.00
25514;BMP180;48128;54.242;10.280;2024-01-25T01:49:11;101243.00;;;7.00
25514;BMP180;48128;54.242;10.280;2024-01-25T01:51:41;101263.00;;;6.90
25514;BMP180;48128;54.242;10.280;2024-01-25T01:54:11;101251.00;;;6.90
25514;BMP180;48128;54.242;10.280;2024-01-25T01:56:38;101254.00;;;6.90
25514;BMP180;48128;54.242;10.280;2024-01-25T01:59:09;101249.00;;;6.90
25514;BMP180;48128;54.242;10.280;2024-01-25T02:01:39;101269.00;;;6.90
25514;BMP180;48128;54.242;10.280;2024-01-25T02:04:06;101256.00;;;6.90
25514;BMP180;48128;54.242;10.280;2024-01-25T02:06:34;101274.00;;;6.90
25514;BMP180;48128;54.242;10.280;2024-01-25T02:09:01;101259.00;;;6.90
25514;BMP180;48128;54.242;10.280;2024-01-25T02:11:29;101274.00;;;6.90
25514;BMP180;48128;54.242;10.280;2024-01-25T02:13:56;101287.00;;;6.90
25514;BMP180;48128;54.242;10.280;2024-01-25T02:16:23;101280.00;;;6.90
25514;BMP180;48128;54.242;10.280;2024-01-25T02:18:50;101275.00;;;6.90
25514;BMP180;48128;54.242;10.280;2024-01-25T02:21:18;101281.00;;;6.90
25514;BMP180;48128;54.242;10.280;2024-01-25T02:23:45;101283.00;;;6.90
25514;BMP180;48128;54.242;10.280;2024-01-25T02:26:12;101282.00;;;6.90
25514;BMP180;48128;54.242;10.280;2024-01-25T02:28:39;101306.00;;;7.00
25514;BMP180;48128;54.242;10.280;2024-01-25T02:31:06;101304.00;;;7.00
25514;BMP180;48128;54.242;10.280;2024-01-25T02:33:33;101295.00;;;7.00
25514;BMP180;48128;54.242;10.280;2024-01-25T02:36:00;101287.00;;;7.00
25514;BMP180;48128;54.242;10.280;2024-01-25T02:38:27;101298.00;;;7.00
25514;BMP180;48128;54.242;10.280;2024-01-25T02:40:53;101308.00;;;7.00
25514;BMP180;48128;54.242;10.280;2024-01-25T02:43:20;101306.00;;;7.00
25514;BMP180;48128;54.242;10.280;2024-01-25T02:45:49;101302.00;;;7.00
25514;BMP180;48128;54.242;10.280;2024-01-25T02:48:17;101312.00;;;7.00
25514;BMP180;48128;54.242;10.280;2024-01-25T02:50:44;101325.00;;;7.00
25514;BMP180;48128;54.242;10.280;2024-01-25T02:53:11;101329.00;;;7.00
25514;BMP180;48128;54.242;10.280;2024-01-25T02:55:38;101339.00;;;7.10
25514;BMP180;48128;54.242;10.280;2024-01-25T02:58:05;101362.00;;;7.10
25514;BMP180;48128;54.242;10.280;2024-01-25T03:00:32;101346.00;;;7.10
25514;BMP180;48128;54.242;10.280;2024-01-25T03:02:59;101360.00;;;7.10
25514;BMP180;48128;54.242;10.280;2024-01-25T03:05:26;101381.00;;;7.10
25514;BMP180;48128;54.242;10.280;2024-01-25T03:07:53;101368.00;;;7.20
25514;BMP180;48128;54.242;10.280;2024-01-25T03:10:20;101370.00;;;7.20
25514;BMP180;48128;54.242;10.280;2024-01-25T03:12:47;101362.00;;;7.10
25514;BMP180;48128;54.242;10.280;2024-01-25T03:15:14;101367.00;;;7.20
25514;BMP180;48128;54.242;10.280;2024-01-25T03:17:42;101375.00;;;7.10
25514;BMP180;48128;54.242;10.280;2024-01-25T03:20:09;101370.00;;;7.10
25514;BMP180;48128;54.242;10.280;2024-01-25T03:22:36;101382.00;;;7.20
25514;BMP180;48128;54.242;10.280;2024-01-25T03:25:04;101368.00;;;7.10
25514;BMP180;48128;54.242;10.280;2024-01-25T03:27:31;101367.00;;;7.10
25514;BMP180;48128;54.242;10.280;2024-01-25T03:29:58;101384.00;;;7.10
25514;BMP180;48128;54.242;10.280;2024-01-25T03:32:25;101377.00;;;7.10
25514;BMP180;48128;54.242;10.280;2024-01-25T03:34:53;101396.00;;;7.10
25514;BMP180;48128;54.242;10.280;2024-01-25T03:37:21;101401.00;;;7.10
25514;BMP180;48128;54.242;10.280;2024-01-25T03:39:49;101414.00;;;7.10
25514;BMP180;48128;54.242;10.280;2024-01-25T03:42:17;101420.00;;;7.10
25514;BMP180;48128;54.242;10.280;2024-01-25T03:44:44;101433.00;;;7.10
25514;BMP180;48128;54.242;10.280;2024-01-25T03:47:12;101424.00;;;7.10
25514;BMP180;48128;54.242;10.280;2024-01-25T03:49:39;101424.00;;;7.00
25514;BMP180;48128;54.242;10.280;2024-01-25T03:52:06;101420.00;;;7.10
25514;BMP180;48128;54.242;10.280;2024-01-25T03:54:34;101430.00;;;7.10
25514;BMP180;48128;54.242;10.280;2024-01-25T03:57:01;101430.00;;;7.10
25514;BMP180;48128;54.242;10.280;2024-01-25T03:59:28;101427.00;;;7.10
25514;BMP180;48128;54.242;10.280;2024-01-25T04:01:55;101460.00;;;7.10
25514;BMP180;48128;54.242;10.280;2024-01-25T04:04:22;101458.00;;;7.10
25514;BMP180;48128;54.242;10.280;2024-01-25T04:06:49;101445.00;;;7.10
25514;BMP180;48128;54.242;10.280;2024-01-25T04:09:16;101452.00;;;7.10
25514;BMP180;48128;54.242;10.280;2024-01-25T04:11:43;101453.00;;;7.10
25514;BMP180;48128;54.242;10.280;2024-01-25T04:14:10;101445.00;;;7.10
25514;BMP180;48128;54.242;10.280;2024-01-25T04:16:37;101451.00;;;7.10
25514;BMP180;48128;54.242;10.280;2024-01-25T04:19:04;101460.00;;;7.10
25514;BMP180;48128;54.242;10.280;2024-01-25T04:21:32;101472.00;;;7.10
25514;BMP180;48128;54.242;10.280;2024-01-25T04:23:59;101478.00;;;7.10
25514;BMP180;48128;54.242;10.280;2024-01-25T04:26:26;101479.00;;;7.00
25514;BMP180;48128;54.242;10.280;2024-01-25T04:28:52;101478.00;;;7.00
25514;BMP180;48128;54.242;10.280;2024-01-25T04:31:19;101477.00;;;7.00
25514;BMP180;48128;54.242;10.280;2024-01-25T04:33:46;101486.00;;;7.10
25514;BMP180;48128;54.242;10.280;2024-01-25T04:36:15;101491.00;;;7.10
25514;BMP180;48128;54.242;10.280;2024-01-25T04:38:42;101488.00;;;7.10
25514;BMP180;48128;54.242;10.280;2024-01-25T04:41:09;101476.00;;;7.00
25514;BMP180;48128;54.242;10.280;2024-01-25T04:43:36;101479.00;;;7.00
25514;BMP180;48128;54.242;10.280;2024-01-25T04:46:03;101498.00;;;7.00
25514;BMP180;48128;54.242;10.280;2024-01-25T04:48:31;101507.00;;;7.00
25514;BMP180;48128;54.242;10.280;2024-01-25T04:50:59;101501.00;;;7.00
25514;BMP180;48128;54.242;10.280;2024-01-25T04:53:27;101514.00;;;7.00
25514;BMP180;48128;54.242;10.280;2024-01-25T04:55:54;101511.00;;;7.00
25514;BMP180;48128;54.242;10.280;2024-01-25T04:58:22;101527.00;;;7.00
25514;BMP180;48128;54.242;10.280;2024-01-25T05:00:49;101535.00;;;7.00
25514;BMP180;48128;54.242;10.280;2024-01-25T05:03:18;101544.00;;;7.00
25514;BMP180;48128;54.242;10.280;2024-01-25T05:05:46;101545.00;;;7.10
25514;BMP180;48128;54.242;10.280;2024-01-25T05:08:13;101536.00;;;7.00
25514;BMP180;48128;54.242;10.280;2024-01-25T05:10:41;101534.00;;;7.00
25514;BMP180;48128;54.242;10.280;2024-01-25T05:13:08;101544.00;;;7.00
25514;BMP180;48128;54.242;10.280;2024-01-25T05:15:36;101535.00;;;7.00
25514;BMP180;48128;54.242;10.280;2024-01-25T05:18:03;101550.00;;;7.00
25514;BMP180;48128;54.242;10.280;2024-01-25T05:20:31;101556.00;;;7.00
25514;BMP180;48128;54.242;10.280;2024-01-25T05:23:04;101560.00;;;7.00
25514;BMP180;48128;54.242;10.280;2024-01-25T05:25:31;101567.00;;;7.00
25514;BMP180;48128;54.242;10.280;2024-01-25T05:27:58;101571.00;;;7.00
25514;BMP180;48128;54.242;10.280;2024-01-25T05:30:26;101578.00;;;7.00
25514;BMP180;48128;54.242;10.280;2024-01-25T05:32:53;101590.00;;;7.00
25514;BMP180;48128;54.242;10.280;2024-01-25T05:35:21;101592.00;;;7.00
25514;BMP180;48128;54.242;10.280;2024-01-25T05:37:50;101579.00;;;7.00
25514;BMP180;48128;54.242;10.280;2024-01-25T05:40:17;101595.00;;;7.10
25514;BMP180;48128;54.242;10.280;2024-01-25T05:42:45;101594.00;;;7.10
25514;BMP180;48128;54.242;10.280;2024-01-25T05:45:12;101599.00;;;7.10
25514;BMP180;48128;54.242;10.280;2024-01-25T05:47:39;101586.00;;;7.00
25514;BMP180;48128;54.242;10.280;2024-01-25T05:50:06;101573.00;;;7.00
25514;BMP180;48128;54.242;10.280;2024-01-25T05:52:34;101563.00;;;7.00
25514;BMP180;48128;54.242;10.280;2024-01-25T05:55:04;101563.00;;;7.00
25514;BMP180;48128;54.242;10.280;2024-01-25T05:57:34;101576.00;;;7.00
25514;BMP180;48128;54.242;10.280;2024-01-25T06:00:01;101568.00;;;7.00
25514;BMP180;48128;54.242;10.280;2024-01-25T06:02:28;101569.00;;;7.00
25514;BMP180;48128;54.242;10.280;2024-01-25T06:04:55;101576.00;;;6.90
25514;BMP180;48128;54.242;10.280;2024-01-25T06:07:26;101591.00;;;6.90
25514;BMP180;48128;54.242;10.280;2024-01-25T06:09:53;101584.00;;;7.00
25514;BMP180;48128;54.242;10.280;2024-01-25T06:12:20;101586.00;;;7.00
25514;BMP180;48128;54.242;10.280;2024-01-25T06:14:47;101585.00;;;6.90
25514;BMP180;48128;54.242;10.280;2024-01-25T06:17:14;101599.00;;;6.90
25514;BMP180;48128;54.242;10.280;2024-01-25T06:19:41;101604.00;;;6.90
25514;BMP180;48128;54.242;10.280;2024-01-25T06:22:08;101607.00;;;6.90
25514;BMP180;48128;54.242;10.280;2024-01-25T06:24:35;101615.00;;;6.90
25514;BMP180;48128;54.242;10.280;2024-01-25T06:27:02;101598.00;;;6.90
25514;BMP180;48128;54.242;10.280;2024-01-25T06:29:29;101608.00;;;6.90
25514;BMP180;48128;54.242;10.280;2024-01-25T06:31:56;101614.00;;;6.90
25514;BMP180;48128;54.242;10.280;2024-01-25T06:34:23;101619.00;;;6.90
25514;BMP180;48128;54.242;10.280;2024-01-25T06:36:50;101635.00;;;6.90
25514;BMP180;48128;54.242;10.280;2024-01-25T06:39:17;101626.00;;;6.90
25514;BMP180;48128;54.242;10.280;2024-01-25T06:41:44;101629.00;;;6.90
25514;BMP180;48128;54.242;10.280;2024-01-25T06:44:11;101643.00;;;6.90
25514;BMP180;48128;54.242;10.280;2024-01-25T06:46:38;101619.00;;;6.90
25514;BMP180;48128;54.242;10.280;2024-01-25T06:49:05;101648.00;;;6.90
25514;BMP180;48128;54.242;10.280;2024-01-25T06:51:33;101647.00;;;6.80
25514;BMP180;48128;54.242;10.280;2024-01-25T06:54:02;101656.00;;;6.80
25514;BMP180;48128;54.242;10.280;2024-01-25T06:56:29;101661.00;;;6.90
25514;BMP180;48128;54.242;10.280;2024-01-25T06:58:56;101674.00;;;6.90
25514;BMP180;48128;54.242;10.280;2024-01-25T07:01:23;101677.00;;;6.80
25514;BMP180;48128;54.242;10.280;2024-01-25T07:03:50;101675.00;;;6.80
25514;BMP180;48128;54.242;10.280;2024-01-25T07:06:19;101686.00;;;6.80
25514;BMP180;48128;54.242;10.280;2024-01-25T07:08:46;101687.00;;;6.80
25514;BMP180;48128;54.242;10.280;2024-01-25T07:11:13;101682.00;;;6.70
25514;BMP180;48128;54.242;10.280;2024-01-25T07:13:43;101689.00;;;6.70
25514;BMP180;48128;54.242;10.280;2024-01-25T07:16:10;101699.00;;;6.70
25514;BMP180;48128;54.242;10.280;2024-01-25T07:18:37;101692.00;;;6.70
25514;BMP180;48128;54.242;10.280;2024-01-25T07:21:04;101703.00;;;6.70
25514;BMP180;48128;54.242;10.280;2024-01-25T07:23:33;101693.00;;;6.70
25514;BMP180;48128;54.242;10.280;2024-01-25T07:26:00;101691.00;;;6.70
25514;BMP180;48128;54.242;10.280;2024-01-25T07:28:27;101722.00;;;6.70
25514;BMP180;48128;54.242;10.280;2024-01-25T07:30:54;101699.00;;;6.70
25514;BMP180;48128;54.242;10.280;2024-01-25T07:33:21;101706.00;;;6.70
25514;BMP180;48128;54.242;10.280;2024-01-25T07:35:48;101710.00;;;6.70
25514;BMP180;48128;54.242;10.280;2024-01-25T07:38:15;101713.00;;;6.70
25514;BMP180;48128;54.242;10.280;2024-01-25T07:40:42;101704.00;;;6.70
25514;BMP180;48128;54.242;10.280;2024-01-25T07:43:09;101700.00;;;6.70
25514;BMP180;48128;54.242;10.280;2024-01-25T07:45:36;101707.00;;;6.70
25514;BMP180;48128;54.242;10.280;2024-01-25T07:48:04;101708.00;;;6.70
25514;BMP180;48128;54.242;10.280;2024-01-25T07:50:40;101716.00;;;6.70
25514;BMP180;48128;54.242;10.280;2024-01-25T07:53:08;101709.00;;;6.70
25514;BMP180;48128;54.242;10.280;2024-01-25T07:55:35;101729.00;;;6.70
25514;BMP180;48128;54.242;10.280;2024-01-25T07:58:02;101732.00;;;6.70
25514;BMP180;48128;54.242;10.280;2024-01-25T08:00:29;101741.00;;;6.70
25514;BMP180;48128;54.242;10.280;2024-01-25T08:02:56;101750.00;;;6.70
25514;BMP180;48128;54.242;10.280;2024-01-25T08:05:23;101760.00;;;6.80
25514;BMP180;48128;54.242;10.280;2024-01-25T08:08:03;101776.00;;;6.80
25514;BMP180;48128;54.242;10.280;2024-01-25T08:10:30;101780.00;;;6.80
25514;BMP180;48128;54.242;10.280;2024-01-25T08:12:57;101787.00;;;6.80
25514;BMP180;48128;54.242;10.280;2024-01-25T08:15:33;101796.00;;;6.80
25514;BMP180;48128;54.242;10.280;2024-01-25T08:18:01;101778.00;;;6.90
25514;BMP180;48128;54.242;10.280;2024-01-25T08:20:28;101776.00;;;6.90
25514;BMP180;48128;54.242;10.280;2024-01-25T08:22:55;101793.00;;;6.90
25514;BMP180;48128;54.242;10.280;2024-01-25T08:25:23;101783.00;;;6.90
25514;BMP180;48128;54.242;10.280;2024-01-25T08:27:50;101779.00;;;7.00
25514;BMP180;48128;54.242;10.280;2024-01-25T08:30:17;101805.00;;;7.00
25514;BMP180;48128;54.242;10.280;2024-01-25T08:32:44;101790.00;;;7.00
25514;BMP180;48128;54.242;10.280;2024-01-25T08:35:11;101793.00;;;7.00
25514;BMP180;48128;54.242;10.280;2024-01-25T08:37:39;101803.00;;;7.00
25514;BMP180;48128;54.242;10.280;2024-01-25T08:40:07;101802.00;;;7.00
25514;BMP180;48128;54.242;10.280;2024-01-25T08:42:36;101794.00;;;7.10
25514;BMP180;48128;54.242;10.280;2024-01-25T08:45:04;101796.00;;;7.10
25514;BMP180;48128;54.242;10.280;2024-01-25T08:47:37;101809.00;;;7.10
25514;BMP180;48128;54.242;10.280;2024-01-25T08:50:05;101812.00;;;7.10
25514;BMP180;48128;54.242;10.280;2024-01-25T08:52:36;101812.00;;;7.10
25514;BMP180;48128;54.242;10.280;2024-01-25T08:55:04;101826.00;;;7.10
25514;BMP180;48128;54.242;10.280;2024-01-25T08:57:31;101818.00;;;7.20
25514;BMP180;48128;54.242;10.280;2024-01-25T08:59:58;101829.00;;;7.20
25514;BMP180;48128;54.242;10.280;2024-01-25T09:02:25;101845.00;;;7.20
25514;BMP180;48128;54.242;10.280;2024-01-25T09:04:54;101840.00;;;7.20
25514;BMP180;48128;54.242;10.280;2024-01-25T09:07:22;101853.00;;;7.20
25514;BMP180;48128;54.242;10.280;2024-01-25T09:09:49;101864.00;;;7.20
25514;BMP180;48128;54.242;10.280;2024-01-25T09:12:16;101878.00;;;7.30
25514;BMP180;48128;54.242;10.280;2024-01-25T09:14:43;101861.00;;;7.30
25514;BMP180;48128;54.242;10.280;2024-01-25T09:17:10;101855.00;;;7.30
25514;BMP180;48128;54.242;10.280;2024-01-25T09:19:37;101854.00;;;7.30
25514;BMP180;48128;54.242;10.280;2024-01-25T09:22:06;101876.00;;;7.30
25514;BMP180;48128;54.242;10.280;2024-01-25T09:24:34;101860.00;;;7.30
25514;BMP180;48128;54.242;10.280;2024-01-25T09:27:03;101874.00;;;7.40
25514;BMP180;48128;54.242;10.280;2024-01-25T09:29:30;101872.00;;;7.40
25514;BMP180;48128;54.242;10.280;2024-01-25T09:31:57;101881.00;;;7.50
25514;BMP180;48128;54.242;10.280;2024-01-25T09:34:24;101863.00;;;7.50
25514;BMP180;48128;54.242;10.280;2024-01-25T09:36:51;101876.00;;;7.50
25514;BMP180;48128;54.242;10.280;2024-01-25T09:39:18;101887.00;;;7.50
25514;BMP180;48128;54.242;10.280;2024-01-25T09:41:46;101880.00;;;7.50
25514;BMP180;48128;54.242;10.280;2024-01-25T09:44:13;101880.00;;;7.50
25514;BMP180;48128;54.242;10.280;2024-01-25T09:46:41;101891.00;;;7.60
25514;BMP180;48128;54.242;10.280;2024-01-25T09:49:09;101889.00;;;7.60
25514;BMP180;48128;54.242;10.280;2024-01-25T09:51:37;101895.00;;;7.60
25514;BMP180;48128;54.242;10.280;2024-01-25T09:54:05;101903.00;;;7.60
25514;BMP180;48128;54.242;10.280;2024-01-25T09:56:33;101910.00;;;7.70
25514;BMP180;48128;54.242;10.280;2024-01-25T09:59:00;101904.00;;;7.70
25514;BMP180;48128;54.242;10.280;2024-01-25T10:01:27;101908.00;;;7.80
25514;BMP180;48128;54.242;10.280;2024-01-25T10:03:54;101914.00;;;7.90
25514;BMP180;48128;54.242;10.280;2024-01-25T10:06:24;101927.00;;;8.00
25514;BMP180;48128;54.242;10.280;2024-01-25T10:08:52;101940.00;;;8.00
25514;BMP180;48128;54.242;10.280;2024-01-25T10:11:19;101957.00;;;8.10
25514;BMP180;48128;54.242;10.280;2024-01-25T10:13:48;101955.00;;;8.00
25514;BMP180;48128;54.242;10.280;2024-01-25T10:16:18;101962.00;;;8.10
25514;BMP180;48128;54.242;10.280;2024-01-25T10:18:48;101960.00;;;8.20
25514;BMP180;48128;54.242;10.280;2024-01-25T10:21:17;101978.00;;;8.30
25514;BMP180;48128;54.242;10.280;2024-01-25T10:23:45;101975.00;;;8.30
25514;BMP180;48128;54.242;10.280;2024-01-25T10:26:13;101986.00;;;8.40
25514;BMP180;48128;54.242;10.280;2024-01-25T10:28:41;101996.00;;;8.40
25514;BMP180;48128;54.242;10.280;2024-01-25T10:31:08;101999.00;;;8.40
25514;BMP180;48128;54.242;10.280;2024-01-25T10:33:37;101991.00;;;8.50
25514;BMP180;48128;54.242;10.280;2024-01-25T10:36:06;101996.00;;;8.50
25514;BMP180;48128;54.242;10.280;2024-01-25T10:38:35;101989.00;;;8.50
25514;BMP180;48128;54.242;10.280;2024-01-25T10:41:04;102011.00;;;8.50
25514;BMP180;48128;54.242;10.280;2024-01-25T10:43:32;101996.00;;;8.60
25514;BMP180;48128;54.242;10.280;2024-01-25T10:46:00;102012.00;;;8.60
25514;BMP180;48128;54.242;10.280;2024-01-25T10:48:31;102021.00;;;8.60
25514;BMP180;48128;54.242;10.280;2024-01-25T10:50:58;101999.00;;;8.50
25514;BMP180;48128;54.242;10.280;2024-01-25T10:53:26;102000.00;;;8.50
25514;BMP180;48128;54.242;10.280;2024-01-25T10:55:55;102010.00;;;8.60
25514;BMP180;48128;54.242;10.280;2024-01-25T10:58:22;102021.00;;;8.60
25514;BMP180;48128;54.242;10.280;2024-01-25T11:00:56;102002.00;;;8.60
25514;BMP180;48128;54.242;10.280;2024-01-25T11:03:26;101998.00;;;8.70
25514;BMP180;48128;54.242;10.280;2024-01-25T11:05:55;102013.00;;;8.70
25514;BMP180;48128;54.242;10.280;2024-01-25T11:08:23;102006.00;;;8.70
25514;BMP180;48128;54.242;10.280;2024-01-25T11:10:50;102003.00;;;8.90
25514;BMP180;48128;54.242;10.280;2024-01-25T11:13:25;102024.00;;;9.00
25514;BMP180;48128;54.242;10.280;2024-01-25T11:15:52;102037.00;;;9.00
25514;BMP180;48128;54.242;10.280;2024-01-25T11:18:19;102050.00;;;9.00
25514;BMP180;48128;54.242;10.280;2024-01-25T11:20:47;102036.00;;;8.80
25514;BMP180;48128;54.242;10.280;2024-01-25T11:23:15;102043.00;;;8.70
25514;BMP180;48128;54.242;10.280;2024-01-25T11:25:46;102022.00;;;8.70
25514;BMP180;48128;54.242;10.280;2024-01-25T11:28:14;102010.00;;;8.60
25514;BMP180;48128;54.242;10.280;2024-01-25T11:30:43;102014.00;;;8.60
25514;BMP180;48128;54.242;10.280;2024-01-25T11:33:10;102011.00;;;8.60
25514;BMP180;48128;54.242;10.280;2024-01-25T11:35:38;102015.00;;;8.70
25514;BMP180;48128;54.242;10.280;2024-01-25T11:38:05;102026.00;;;8.70
25514;BMP180;48128;54.242;10.280;2024-01-25T11:40:32;102012.00;;;8.70
25514;BMP180;48128;54.242;10.280;2024-01-25T11:43:05;102020.00;;;8.70
25514;BMP180;48128;54.242;10.280;2024-01-25T11:45:38;102006.00;;;8.80
25514;BMP180;48128;54.242;10.280;2024-01-25T11:48:10;102014.00;;;8.80
25514;BMP180;48128;54.242;10.280;2024-01-25T11:50:38;102012.00;;;8.90
25514;BMP180;48128;54.242;10.280;2024-01-25T11:53:05;102016.00;;;8.90
25514;BMP180;48128;54.242;10.280;2024-01-25T11:55:32;102016.00;;;9.00
25514;BMP180;48128;54.242;10.280;2024-01-25T11:57:59;102027.00;;;9.10
25514;BMP180;48128;54.242;10.280;2024-01-25T12:00:26;102034.00;;;9.30
25514;BMP180;48128;54.242;10.280;2024-01-25T12:02:53;102040.00;;;9.40
25514;BMP180;48128;54.242;10.280;2024-01-25T12:05:21;102039.00;;;9.50
25514;BMP180;48128;54.242;10.280;2024-01-25T12:07:49;102052.00;;;9.60
25514;BMP180;48128;54.242;10.280;2024-01-25T12:10:16;102055.00;;;9.70
25514;BMP180;48128;54.242;10.280;2024-01-25T12:12:44;102052.00;;;9.70
25514;BMP180;48128;54.242;10.280;2024-01-25T12:15:12;102064.00;;;9.70
25514;BMP180;48128;54.242;10.280;2024-01-25T12:17:39;102048.00;;;9.70
25514;BMP180;48128;54.242;10.280;2024-01-25T12:20:07;102054.00;;;9.80
25514;BMP180;48128;54.242;10.280;2024-01-25T12:22:38;102061.00;;;9.70
25514;BMP180;48128;54.242;10.280;2024-01-25T12:25:09;102071.00;;;9.60
25514;BMP180;48128;54.242;10.280;2024-01-25T12:27:40;102058.00;;;9.50
25514;BMP180;48128;54.242;10.280;2024-01-25T12:30:08;102042.00;;;9.40
25514;BMP180;48128;54.242;10.280;2024-01-25T12:32:35;102038.00;;;9.30
25514;BMP180;48128;54.242;10.280;2024-01-25T12:35:02;102025.00;;;9.10
25514;BMP180;48128;54.242;10.280;2024-01-25T12:37:33;102021.00;;;9.00
25514;BMP180;48128;54.242;10.280;2024-01-25T12:40:00;102000.00;;;8.90
25514;BMP180;48128;54.242;10.280;2024-01-25T12:42:27;102010.00;;;8.70
25514;BMP180;48128;54.242;10.280;2024-01-25T12:44:54;102011.00;;;8.60
25514;BMP180;48128;54.242;10.280;2024-01-25T12:47:21;102018.00;;;8.60
25514;BMP180;48128;54.242;10.280;2024-01-25T12:49:49;102011.00;;;8.50
25514;BMP180;48128;54.242;10.280;2024-01-25T12:52:16;101996.00;;;8.40
25514;BMP180;48128;54.242;10.280;2024-01-25T12:54:43;102007.00;;;8.20
25514;BMP180;48128;54.242;10.280;2024-01-25T12:57:11;102000.00;;;8.20
25514;BMP180;48128;54.242;10.280;2024-01-25T12:59:38;101994.00;;;8.10
25514;BMP180;48128;54.242;10.280;2024-01-25T13:02:05;101985.00;;;8.10
25514;BMP180;48128;54.242;10.280;2024-01-25T13:04:33;101974.00;;;8.10
25514;BMP180;48128;54.242;10.280;2024-01-25T13:07:00;101985.00;;;8.10
25514;BMP180;48128;54.242;10.280;2024-01-25T13:09:27;101991.00;;;8.10
25514;BMP180;48128;54.242;10.280;2024-01-25T13:11:56;101996.00;;;8.10
25514;BMP180;48128;54.242;10.280;2024-01-25T13:14:23;101987.00;;;8.10
25514;BMP180;48128;54.242;10.280;2024-01-25T13:16:50;101993.00;;;8.10
25514;BMP180;48128;54.242;10.280;2024-01-25T13:19:18;101992.00;;;8.10
25514;BMP180;48128;54.242;10.280;2024-01-25T13:21:49;101984.00;;;8.10
25514;BMP180;48128;54.242;10.280;2024-01-25T13:24:18;101996.00;;;8.10
25514;BMP180;48128;54.242;10.280;2024-01-25T13:26:45;101993.00;;;8.00
25514;BMP180;48128;54.242;10.280;2024-01-25T13:29:21;101996.00;;;8.00
25514;BMP180;48128;54.242;10.280;2024-01-25T13:31:53;101997.00;;;8.00
25514;BMP180;48128;54.242;10.280;2024-01-25T13:34:20;101998.00;;;8.00
25514;BMP180;48128;54.242;10.280;2024-01-25T13:36:47;101990.00;;;8.00
25514;BMP180;48128;54.242;10.280;2024-01-25T13:39:14;101993.00;;;8.00
25514;BMP180;48128;54.242;10.280;2024-01-25T13:41:41;102000.00;;;8.00
25514;BMP180;48128;54.242;10.280;2024-01-25T13:44:08;102005.00;;;7.90
25514;BMP180;48128;54.242;10.280;2024-01-25T13:46:34;102001.00;;;7.90
25514;BMP180;48128;54.242;10.280;2024-01-25T13:49:02;102003.00;;;7.80
25514;BMP180;48128;54.242;10.280;2024-01-25T13:51:29;101993.00;;;7.70
25514;BMP180;48128;54.242;10.280;2024-01-25T13:53:55;101989.00;;;7.70
25514;BMP180;48128;54.242;10.280;2024-01-25T13:56:22;101999.00;;;7.60
25514;BMP180;48128;54.242;10.280;2024-01-25T13:58:49;102003.00;;;7.60